createdAt,value
2022-12-12T00:00:12.350Z,87.79
2022-12-12T00:02:29.599Z,87.69
2022-12-12T00:04:46.800Z,87.60
2022-12-12T00:07:03.916Z,87.68
2022-12-12T00:09:21.174Z,87.13
2022-12-12T00:11:41.651Z,87.04
2022-12-12T00:13:58.737Z,87.22
2022-12-12T00:16:15.847Z,86.93
2022-12-12T00:18:33.079Z,86.92
2022-12-12T00:20:50.438Z,86.96
2022-12-12T00:23:07.513Z,86.85
2022-12-12T00:25:24.585Z,86.96
2022-12-12T00:27:41.663Z,86.93
2022-12-12T00:29:59.714Z,86.92
2022-12-12T00:32:17.095Z,87.11
2022-12-12T00:34:34.208Z,87.40
2022-12-12T00:36:51.358Z,87.56
2022-12-12T00:39:09.787Z,87.77
2022-12-12T00:41:29.640Z,87.85
2022-12-12T00:43:46.603Z,87.76
2022-12-12T00:46:03.712Z,87.65
2022-12-12T00:48:20.722Z,87.10
2022-12-12T00:50:37.767Z,87.73
2022-12-12T00:52:54.694Z,87.55
2022-12-12T00:55:11.891Z,87.52
2022-12-12T00:57:29.945Z,87.47
2022-12-12T00:59:47.354Z,87.61
2022-12-12T01:02:04.694Z,87.38
2022-12-12T01:04:21.697Z,87.73
2022-12-12T01:06:38.647Z,87.75
2022-12-12T01:08:55.623Z,87.84
2022-12-12T01:11:13.915Z,87.68
2022-12-12T01:13:30.994Z,87.83
2022-12-12T01:15:49.360Z,87.44
2022-12-12T01:18:11.669Z,87.59
2022-12-12T01:20:29.644Z,87.81
2022-12-12T01:22:47.497Z,88.31
2022-12-12T01:25:04.489Z,87.81
2022-12-12T01:27:24.020Z,88.03
2022-12-12T01:29:41.129Z,87.96
2022-12-12T01:31:58.500Z,87.74
2022-12-12T01:34:16.855Z,87.62
2022-12-12T01:36:35.893Z,87.96
2022-12-12T01:38:53.175Z,88.24
2022-12-12T01:41:10.538Z,88.08
2022-12-12T01:43:27.461Z,88.25
2022-12-12T01:45:44.441Z,87.81
2022-12-12T01:48:05.371Z,87.70
2022-12-12T01:50:23.047Z,87.80
2022-12-12T01:52:40.017Z,88.10
2022-12-12T01:54:57.155Z,88.40
2022-12-12T01:57:14.122Z,87.95
2022-12-12T01:59:31.420Z,87.95
2022-12-12T02:01:48.661Z,88.33
2022-12-12T02:04:06.102Z,87.97
2022-12-12T02:06:23.188Z,87.69
2022-12-12T02:08:40.142Z,87.90
2022-12-12T02:10:57.508Z,87.52
2022-12-12T02:13:14.388Z,87.98
2022-12-12T02:15:31.274Z,87.26
2022-12-12T02:17:48.220Z,87.62
2022-12-12T02:20:05.106Z,87.56
2022-12-12T02:22:22.333Z,87.23
2022-12-12T02:24:39.318Z,87.73
2022-12-12T02:26:56.555Z,87.25
2022-12-12T02:29:13.796Z,87.13
2022-12-12T02:31:31.752Z,87.68
2022-12-12T02:33:49.083Z,87.89
2022-12-12T02:36:07.000Z,87.20
2022-12-12T02:38:23.897Z,87.20
2022-12-12T02:40:41.112Z,86.41
2022-12-12T02:42:59.411Z,86.13
2022-12-12T02:45:16.648Z,85.93
2022-12-12T02:47:33.954Z,86.10
2022-12-12T02:49:51.251Z,86.17
2022-12-12T02:52:08.553Z,85.15
2022-12-12T02:54:25.485Z,85.59
2022-12-12T02:56:43.767Z,85.50
2022-12-12T02:59:00.672Z,85.69
2022-12-12T03:01:17.743Z,85.19
2022-12-12T03:03:34.863Z,85.50
2022-12-12T03:05:52.060Z,85.54
2022-12-12T03:08:09.244Z,84.92
2022-12-12T03:10:26.207Z,85.38
2022-12-12T03:12:43.128Z,84.81
2022-12-12T03:15:01.012Z,85.03
2022-12-12T03:17:17.966Z,85.29
2022-12-12T03:19:35.224Z,85.60
2022-12-12T03:21:52.476Z,85.71
2022-12-12T03:24:09.417Z,85.35
2022-12-12T03:26:27.656Z,85.77
2022-12-12T03:28:47.772Z,85.28
2022-12-12T03:31:05.056Z,85.92
2022-12-12T03:33:22.289Z,85.74
2022-12-12T03:35:39.585Z,85.64
2022-12-12T03:37:56.711Z,85.48
2022-12-12T03:40:13.779Z,85.47
2022-12-12T03:42:30.673Z,85.97
2022-12-12T03:44:47.918Z,85.29
2022-12-12T03:47:05.243Z,85.77
2022-12-12T03:49:22.566Z,86.08
2022-12-12T03:51:40.595Z,85.92
2022-12-12T03:53:57.525Z,85.14
2022-12-12T03:56:15.456Z,86.04
2022-12-12T03:58:32.780Z,86.29
2022-12-12T04:00:50.039Z,85.61
2022-12-12T04:03:08.128Z,85.87
2022-12-12T04:05:25.134Z,85.98
2022-12-12T04:07:42.164Z,86.11
2022-12-12T04:09:59.130Z,85.40
2022-12-12T04:12:16.441Z,85.76
2022-12-12T04:14:33.383Z,85.69
2022-12-12T04:16:51.637Z,85.49
2022-12-12T04:19:08.758Z,85.43
2022-12-12T04:21:26.069Z,85.47
2022-12-12T04:23:44.033Z,85.36
2022-12-12T04:26:01.113Z,85.30
2022-12-12T04:28:18.151Z,85.98
2022-12-12T04:30:35.025Z,85.65
2022-12-12T04:32:51.941Z,85.24
2022-12-12T04:35:08.915Z,85.70
2022-12-12T04:37:26.838Z,85.72
2022-12-12T04:39:43.716Z,85.67
2022-12-12T04:42:02.223Z,85.14
2022-12-12T04:44:19.234Z,85.44
2022-12-12T04:46:36.271Z,84.95
2022-12-12T04:48:53.980Z,85.04
2022-12-12T04:51:11.072Z,85.95
2022-12-12T04:53:28.178Z,85.55
2022-12-12T04:55:46.072Z,85.40
2022-12-12T04:58:03.986Z,85.36
2022-12-12T05:00:21.095Z,85.14
2022-12-12T05:02:38.212Z,85.17
2022-12-12T05:04:55.982Z,85.28
2022-12-12T05:07:12.915Z,85.59
2022-12-12T05:09:30.221Z,85.54
2022-12-12T05:11:47.265Z,85.42
2022-12-12T05:14:04.522Z,85.39
2022-12-12T05:16:22.477Z,85.25
2022-12-12T05:18:39.767Z,85.26
2022-12-12T05:20:56.847Z,85.05
2022-12-12T05:23:13.749Z,85.22
2022-12-12T05:25:30.665Z,85.32
2022-12-12T05:27:47.685Z,85.60
2022-12-12T05:30:05.132Z,85.40
2022-12-12T05:32:22.345Z,84.74
2022-12-12T05:34:39.382Z,84.96
2022-12-12T05:36:57.271Z,84.77
2022-12-12T05:39:14.199Z,84.93
2022-12-12T05:41:31.182Z,85.14
2022-12-12T05:43:48.208Z,85.20
2022-12-12T05:46:05.134Z,85.26
2022-12-12T05:48:24.444Z,85.49
2022-12-12T05:50:41.659Z,85.37
2022-12-12T05:52:58.932Z,85.38
2022-12-12T05:55:15.943Z,85.16
2022-12-12T05:57:33.382Z,84.96
2022-12-12T05:59:50.429Z,84.97
2022-12-12T06:02:07.785Z,84.66
2022-12-12T06:04:24.896Z,84.81
2022-12-12T06:06:41.870Z,84.86
2022-12-12T06:08:59.117Z,84.68
2022-12-12T06:11:16.016Z,84.94
2022-12-12T06:13:33.221Z,84.95
2022-12-12T06:15:50.282Z,84.58
2022-12-12T06:18:07.179Z,84.53
2022-12-12T06:20:24.093Z,84.71
2022-12-12T06:22:41.126Z,84.63
2022-12-12T06:24:58.381Z,84.80
2022-12-12T06:27:15.273Z,85.15
2022-12-12T06:29:32.472Z,85.21
2022-12-12T06:31:49.395Z,85.08
2022-12-12T06:34:06.461Z,85.23
2022-12-12T06:36:23.442Z,84.71
2022-12-12T06:38:40.889Z,84.94
2022-12-12T06:41:00.320Z,84.97
2022-12-12T06:43:18.269Z,85.01
2022-12-12T06:45:35.316Z,84.92
2022-12-12T06:47:52.287Z,84.69
2022-12-12T06:50:10.060Z,84.92
2022-12-12T06:52:28.367Z,84.89
2022-12-12T06:54:45.352Z,84.64
2022-12-12T06:57:02.400Z,84.67
2022-12-12T06:59:19.677Z,84.84
2022-12-12T07:01:36.988Z,84.89
2022-12-12T07:03:54.269Z,84.86
2022-12-12T07:06:11.170Z,84.60
2022-12-12T07:08:28.471Z,84.63
2022-12-12T07:10:45.634Z,84.75
2022-12-12T07:13:02.943Z,84.60
2022-12-12T07:15:20.313Z,84.97
2022-12-12T07:17:37.376Z,84.80
2022-12-12T07:19:54.443Z,84.16
2022-12-12T07:22:11.374Z,84.14
2022-12-12T07:24:28.699Z,83.92
2022-12-12T07:26:46.820Z,84.33
2022-12-12T07:29:04.120Z,84.17
2022-12-12T07:31:21.470Z,84.07
2022-12-12T07:33:43.489Z,84.28
2022-12-12T07:36:01.170Z,84.47
2022-12-12T07:38:18.251Z,84.79
2022-12-12T07:40:35.664Z,84.71
2022-12-12T07:42:52.555Z,84.53
2022-12-12T07:45:12.569Z,84.43
2022-12-12T07:47:34.737Z,84.57
2022-12-12T07:49:52.018Z,84.74
2022-12-12T07:52:08.932Z,84.58
2022-12-12T07:54:25.968Z,84.36
2022-12-12T07:56:43.023Z,84.44
2022-12-12T07:59:01.062Z,84.47
2022-12-12T08:01:17.958Z,84.00
2022-12-12T08:03:34.855Z,84.66
2022-12-12T08:05:52.042Z,84.70
2022-12-12T08:08:10.029Z,84.67
2022-12-12T08:10:27.826Z,84.04
2022-12-12T08:12:45.883Z,83.99
2022-12-12T08:15:03.060Z,84.33
2022-12-12T08:17:20.925Z,84.29
2022-12-12T08:19:37.868Z,84.38
2022-12-12T08:21:55.528Z,84.35
2022-12-12T08:24:12.779Z,84.67
2022-12-12T08:26:30.700Z,84.87
2022-12-12T08:28:48.945Z,85.11
2022-12-12T08:31:06.997Z,85.15
2022-12-12T08:33:24.252Z,84.93
2022-12-12T08:35:41.329Z,84.68
2022-12-12T08:37:58.596Z,84.51
2022-12-12T08:40:16.664Z,84.68
2022-12-12T08:42:33.617Z,85.01
2022-12-12T08:44:50.607Z,84.76
2022-12-12T08:47:07.682Z,84.73
2022-12-12T08:49:24.994Z,84.82
2022-12-12T08:51:42.252Z,84.94
2022-12-12T08:53:59.582Z,84.96
2022-12-12T08:56:16.463Z,85.20
2022-12-12T08:58:33.675Z,85.03
2022-12-12T09:00:52.112Z,85.14
2022-12-12T09:03:09.128Z,84.62
2022-12-12T09:05:26.447Z,84.58
2022-12-12T09:07:43.673Z,84.56
2022-12-12T09:10:00.659Z,84.41
2022-12-12T09:12:17.619Z,84.04
2022-12-12T09:14:34.641Z,83.76
2022-12-12T09:16:51.868Z,83.83
2022-12-12T09:19:09.916Z,83.96
2022-12-12T09:21:26.957Z,83.83
2022-12-12T09:23:43.990Z,83.76
2022-12-12T09:26:00.851Z,83.96
2022-12-12T09:28:17.934Z,83.84
2022-12-12T09:30:34.955Z,83.46
2022-12-12T09:32:51.973Z,83.79
2022-12-12T09:35:08.919Z,83.89
2022-12-12T09:37:26.243Z,84.00
2022-12-12T09:39:43.559Z,84.21
2022-12-12T09:42:00.575Z,83.67
2022-12-12T09:44:17.477Z,81.84
2022-12-12T09:46:34.429Z,78.64
2022-12-12T09:48:52.500Z,75.75
2022-12-12T09:51:10.537Z,74.14
2022-12-12T09:53:27.490Z,74.15
2022-12-12T09:55:44.635Z,75.49
2022-12-12T09:58:01.583Z,76.60
2022-12-12T10:00:19.723Z,78.03
2022-12-12T10:02:36.720Z,79.09
2022-12-12T10:04:53.925Z,79.79
2022-12-12T10:07:11.873Z,81.22
2022-12-12T10:09:31.724Z,81.60
2022-12-12T10:11:49.090Z,81.67
2022-12-12T10:14:06.186Z,81.62
2022-12-12T10:16:23.283Z,81.31
2022-12-12T10:18:40.278Z,80.74
2022-12-12T10:20:57.814Z,80.99
2022-12-12T10:23:14.951Z,81.90
2022-12-12T10:25:31.913Z,81.76
2022-12-12T10:27:48.916Z,81.86
2022-12-12T10:30:06.109Z,81.68
2022-12-12T10:32:23.378Z,82.21
2022-12-12T10:34:40.299Z,82.23
2022-12-12T10:36:57.382Z,81.66
2022-12-12T10:39:14.752Z,81.63
2022-12-12T10:41:31.812Z,81.62
2022-12-12T10:43:48.829Z,81.73
2022-12-12T10:46:05.879Z,81.11
2022-12-12T10:48:23.361Z,81.14
2022-12-12T10:50:41.822Z,80.94
2022-12-12T10:52:58.857Z,80.84
2022-12-12T10:55:16.904Z,80.91
2022-12-12T10:57:34.958Z,81.21
2022-12-12T10:59:51.922Z,81.03
2022-12-12T11:02:10.495Z,80.97
2022-12-12T11:04:28.029Z,80.65
2022-12-12T11:06:45.339Z,79.71
2022-12-12T11:09:02.432Z,79.41
2022-12-12T11:11:19.815Z,79.64
2022-12-12T11:13:37.106Z,79.22
2022-12-12T11:15:54.101Z,79.35
2022-12-12T11:18:11.220Z,78.81
2022-12-12T11:20:28.485Z,78.74
2022-12-12T11:22:45.385Z,79.19
2022-12-12T11:25:02.437Z,79.57
2022-12-12T11:27:19.598Z,79.60
2022-12-12T11:29:36.480Z,79.50
2022-12-12T11:31:53.555Z,79.81
2022-12-12T11:34:10.580Z,79.93
2022-12-12T11:36:27.660Z,79.89
2022-12-12T11:38:44.634Z,79.64
2022-12-12T11:41:01.924Z,79.43
2022-12-12T11:43:18.950Z,79.87
2022-12-12T11:45:36.027Z,80.15
2022-12-12T11:47:53.032Z,79.76
2022-12-12T11:50:11.196Z,80.26
2022-12-12T11:52:28.438Z,80.05
2022-12-12T11:54:45.559Z,80.12
2022-12-12T11:57:03.525Z,79.58
2022-12-12T11:59:20.906Z,79.66
2022-12-12T12:01:38.020Z,79.09
2022-12-12T12:03:56.160Z,80.15
2022-12-12T12:06:13.588Z,79.89
2022-12-12T12:08:30.738Z,79.86
2022-12-12T12:10:47.821Z,79.81
2022-12-12T12:13:05.198Z,79.24
2022-12-12T12:15:22.586Z,79.44
2022-12-12T12:17:39.598Z,79.57
2022-12-12T12:19:56.893Z,79.36
2022-12-12T12:22:14.233Z,79.10
2022-12-12T12:24:32.477Z,79.63
2022-12-12T12:26:49.986Z,79.65
2022-12-12T12:29:07.023Z,79.78
2022-12-12T12:31:24.615Z,79.63
2022-12-12T12:33:41.812Z,79.88
2022-12-12T12:36:00.206Z,79.82
2022-12-12T12:38:17.294Z,79.84
2022-12-12T12:40:34.338Z,80.16
2022-12-12T12:42:51.312Z,79.57
2022-12-12T12:45:08.251Z,79.27
2022-12-12T12:47:25.439Z,79.11
2022-12-12T12:49:42.730Z,78.96
2022-12-12T12:51:59.763Z,79.27
2022-12-12T12:54:16.810Z,79.39
2022-12-12T12:56:35.560Z,79.20
2022-12-12T12:58:54.367Z,79.48
2022-12-12T13:01:11.720Z,79.55
2022-12-12T13:03:29.080Z,79.97
2022-12-12T13:05:46.006Z,79.93
2022-12-12T13:08:02.993Z,79.46
2022-12-12T13:10:20.254Z,79.63
2022-12-12T13:12:37.359Z,79.69
2022-12-12T13:14:54.611Z,79.26
2022-12-12T13:17:11.694Z,79.45
2022-12-12T13:19:28.947Z,79.37
2022-12-12T13:21:45.942Z,79.07
2022-12-12T13:24:02.960Z,79.32
2022-12-12T13:26:20.209Z,79.06
2022-12-12T13:28:37.164Z,79.36
2022-12-12T13:30:54.110Z,79.65
2022-12-12T13:33:11.160Z,79.43
2022-12-12T13:35:29.312Z,79.30
2022-12-12T13:37:46.249Z,79.31
2022-12-12T13:40:03.437Z,79.17
2022-12-12T13:42:20.317Z,79.51
2022-12-12T13:44:37.206Z,79.75
2022-12-12T13:46:54.207Z,80.04
2022-12-12T13:49:11.202Z,80.03
2022-12-12T13:51:28.945Z,80.20
2022-12-12T13:53:46.173Z,80.79
2022-12-12T13:56:03.200Z,80.68
2022-12-12T13:58:20.245Z,81.11
2022-12-12T14:00:37.561Z,81.05
2022-12-12T14:03:01.029Z,81.32
2022-12-12T14:05:18.906Z,82.17
2022-12-12T14:07:35.877Z,81.81
2022-12-12T14:09:54.108Z,81.96
2022-12-12T14:12:11.546Z,82.06
2022-12-12T14:14:28.480Z,82.33
2022-12-12T14:16:45.441Z,82.71
2022-12-12T14:19:02.654Z,82.79
2022-12-12T14:21:19.598Z,83.42
2022-12-12T14:23:36.808Z,83.06
2022-12-12T14:25:53.837Z,82.60
2022-12-12T14:28:11.117Z,82.73
2022-12-12T14:30:28.128Z,82.91
2022-12-12T14:32:45.008Z,82.44
2022-12-12T14:35:01.972Z,82.69
2022-12-12T14:37:19.226Z,83.31
2022-12-12T14:39:37.151Z,83.48
2022-12-12T14:41:54.451Z,83.48
2022-12-12T14:44:36.741Z,83.59
2022-12-12T14:46:48.841Z,83.18
2022-12-12T14:49:06.146Z,82.88
2022-12-12T14:51:28.941Z,83.65
2022-12-12T14:53:46.424Z,83.52
2022-12-12T14:56:03.406Z,83.34
2022-12-12T14:58:20.715Z,83.33
2022-12-12T15:00:37.738Z,83.64
2022-12-12T15:02:54.804Z,83.11
2022-12-12T15:05:12.203Z,82.96
2022-12-12T15:07:29.146Z,82.87
2022-12-12T15:09:46.422Z,83.00
2022-12-12T15:12:03.324Z,83.29
2022-12-12T15:14:20.317Z,82.83
2022-12-12T15:16:37.699Z,83.54
2022-12-12T15:18:54.972Z,83.43
2022-12-12T15:21:11.956Z,83.71
2022-12-12T15:23:28.868Z,84.15
2022-12-12T15:25:45.819Z,83.89
2022-12-12T15:28:02.859Z,83.59
2022-12-12T15:30:19.830Z,83.57
2022-12-12T15:32:37.842Z,83.48
2022-12-12T15:34:54.941Z,83.83
2022-12-12T15:37:11.907Z,83.19
2022-12-12T15:39:28.888Z,83.37
2022-12-12T15:41:46.212Z,83.50
2022-12-12T15:44:03.280Z,83.62
2022-12-12T15:46:20.548Z,83.54
2022-12-12T15:48:37.595Z,82.96
2022-12-12T15:50:54.591Z,83.29
2022-12-12T15:53:11.929Z,84.01
2022-12-12T15:55:28.939Z,83.65
2022-12-12T15:57:46.017Z,83.01
2022-12-12T16:00:03.046Z,83.21
2022-12-12T16:02:20.433Z,82.81
2022-12-12T16:04:37.517Z,83.72
2022-12-12T16:06:54.502Z,83.80
2022-12-12T16:09:11.434Z,83.36
2022-12-12T16:11:28.690Z,83.03
2022-12-12T16:13:45.573Z,83.39
2022-12-12T16:16:03.475Z,82.78
2022-12-12T16:18:20.790Z,83.19
2022-12-12T16:20:38.073Z,83.32
2022-12-12T16:22:55.104Z,82.94
2022-12-12T16:25:12.121Z,82.92
2022-12-12T16:27:29.122Z,82.98
2022-12-12T16:29:46.285Z,82.84
2022-12-12T16:32:04.252Z,82.81
2022-12-12T16:34:21.198Z,83.39
2022-12-12T16:36:41.962Z,83.10
2022-12-12T16:39:00.452Z,83.12
2022-12-12T16:41:17.498Z,83.30
2022-12-12T16:43:35.630Z,83.16
2022-12-12T16:45:52.598Z,82.68
2022-12-12T16:48:09.664Z,82.95
2022-12-12T16:50:26.965Z,82.83
2022-12-12T16:52:46.185Z,82.89
2022-12-12T16:55:03.157Z,83.41
2022-12-12T16:57:20.736Z,82.98
2022-12-12T16:59:37.712Z,83.07
2022-12-12T17:01:54.656Z,83.56
2022-12-12T17:04:12.054Z,83.03
2022-12-12T17:06:29.093Z,83.35
2022-12-12T17:08:45.981Z,83.82
2022-12-12T17:11:09.874Z,83.91
2022-12-12T17:13:27.787Z,83.35
2022-12-12T17:15:45.023Z,83.19
2022-12-12T17:18:01.898Z,83.16
2022-12-12T17:20:20.006Z,83.28
2022-12-12T17:22:36.949Z,83.61
2022-12-12T17:24:54.007Z,83.75
2022-12-12T17:27:11.068Z,83.90
2022-12-12T17:29:28.118Z,83.46
2022-12-12T17:31:45.499Z,83.42
2022-12-12T17:34:02.972Z,83.54
2022-12-12T17:36:19.928Z,83.41
2022-12-12T17:38:37.351Z,83.33
2022-12-12T17:40:54.824Z,83.30
2022-12-12T17:43:11.794Z,83.29
2022-12-12T17:45:28.880Z,83.04
2022-12-12T17:47:45.880Z,83.41
2022-12-12T17:50:02.920Z,83.32
2022-12-12T17:52:19.971Z,83.21
2022-12-12T17:54:37.058Z,82.98
2022-12-12T17:56:54.108Z,83.91
2022-12-12T17:59:11.394Z,83.85
2022-12-12T18:01:28.540Z,83.80
2022-12-12T18:03:46.930Z,83.89
2022-12-12T18:06:04.339Z,84.16
2022-12-12T18:08:21.364Z,83.95
2022-12-12T18:10:38.589Z,83.62
2022-12-12T18:12:55.738Z,83.76
2022-12-12T18:15:13.761Z,83.75
2022-12-12T18:17:30.696Z,83.74
2022-12-12T18:19:47.878Z,84.11
2022-12-12T18:22:05.931Z,84.12
2022-12-12T18:24:22.884Z,84.05
2022-12-12T18:26:39.904Z,84.18
2022-12-12T18:28:56.897Z,83.77
2022-12-12T18:31:13.842Z,83.91
2022-12-12T18:33:30.999Z,83.40
2022-12-12T18:35:47.955Z,83.87
2022-12-12T18:38:05.350Z,83.78
2022-12-12T18:40:22.306Z,84.10
2022-12-12T18:42:42.310Z,83.78
2022-12-12T18:44:59.436Z,83.62
2022-12-12T18:47:17.890Z,83.72
2022-12-12T18:49:34.819Z,83.69
2022-12-12T18:51:52.075Z,83.62
2022-12-12T18:54:14.331Z,83.63
2022-12-12T18:56:32.426Z,83.75
2022-12-12T18:58:50.693Z,83.95
2022-12-12T19:01:07.992Z,83.69
2022-12-12T19:03:25.850Z,83.57
2022-12-12T19:05:43.986Z,83.50
2022-12-12T19:08:01.116Z,83.40
2022-12-12T19:10:18.112Z,83.37
2022-12-12T19:12:35.067Z,83.79
2022-12-12T19:15:15.871Z,83.65
2022-12-12T19:17:29.051Z,83.73
2022-12-12T19:19:46.310Z,83.56
2022-12-12T19:22:18.650Z,84.14
2022-12-12T19:24:40.671Z,83.83
2022-12-12T19:26:57.620Z,83.97
2022-12-12T19:29:14.513Z,84.21
2022-12-12T19:31:31.452Z,84.15
2022-12-12T19:33:48.806Z,84.19
2022-12-12T19:36:06.041Z,84.07
2022-12-12T19:38:24.753Z,83.94
2022-12-12T19:40:41.842Z,83.50
2022-12-12T19:42:59.209Z,83.89
2022-12-12T19:45:16.211Z,83.94
2022-12-12T19:47:33.138Z,83.95
2022-12-12T19:49:50.372Z,83.90
2022-12-12T19:52:12.292Z,83.61
2022-12-12T19:54:31.382Z,83.46
2022-12-12T19:56:48.675Z,83.71
2022-12-12T19:59:05.903Z,83.80
2022-12-12T20:01:22.985Z,83.50
2022-12-12T20:03:40.002Z,83.62
2022-12-12T20:05:57.008Z,83.84
2022-12-12T20:08:14.182Z,83.88
2022-12-12T20:10:31.593Z,83.73
2022-12-12T20:12:57.931Z,84.06
2022-12-12T20:15:15.833Z,84.22
2022-12-12T20:17:33.033Z,83.96
2022-12-12T20:19:49.973Z,84.00
2022-12-12T20:22:07.010Z,83.82
2022-12-12T20:24:25.131Z,84.05
2022-12-12T20:26:43.193Z,84.01
2022-12-12T20:29:00.428Z,83.76
2022-12-12T20:31:17.712Z,83.79
2022-12-12T20:33:34.650Z,83.59
2022-12-12T20:35:51.739Z,83.34
2022-12-12T20:38:08.746Z,83.65
2022-12-12T20:40:25.955Z,83.67
2022-12-12T20:42:47.323Z,83.82
2022-12-12T20:45:07.263Z,83.97
2022-12-12T20:47:24.296Z,83.79
2022-12-12T20:49:42.532Z,83.88
2022-12-12T20:51:59.767Z,84.07
2022-12-12T20:54:16.783Z,84.05
2022-12-12T20:56:33.703Z,84.33
2022-12-12T20:58:50.607Z,84.01
2022-12-12T21:01:07.724Z,84.30
2022-12-12T21:03:24.685Z,84.33
2022-12-12T21:05:42.691Z,84.51
2022-12-12T21:07:59.784Z,84.62
2022-12-12T21:10:16.687Z,84.97
2022-12-12T21:12:34.702Z,85.04
2022-12-12T21:14:51.754Z,85.36
2022-12-12T21:17:08.957Z,85.36
2022-12-12T21:19:25.981Z,85.42
2022-12-12T21:21:42.847Z,85.37
2022-12-12T21:23:59.810Z,85.63
2022-12-12T21:26:19.690Z,85.56
2022-12-12T21:28:39.483Z,85.18
2022-12-12T21:30:56.381Z,85.73
2022-12-12T21:33:13.440Z,85.60
2022-12-12T21:35:30.411Z,85.86
2022-12-12T21:37:47.956Z,85.88
2022-12-12T21:40:06.372Z,86.04
2022-12-12T21:42:24.392Z,85.79
2022-12-12T21:44:45.537Z,86.02
2022-12-12T21:47:02.948Z,86.28
2022-12-12T21:49:20.793Z,86.16
2022-12-12T21:51:38.341Z,86.17
2022-12-12T21:53:55.932Z,86.15
2022-12-12T21:56:14.367Z,86.26
2022-12-12T21:58:31.770Z,86.21
2022-12-12T22:00:50.561Z,86.25
2022-12-12T22:03:07.578Z,86.42
2022-12-12T22:05:24.780Z,86.64
2022-12-12T22:07:42.274Z,86.38
2022-12-12T22:10:10.323Z,86.23
2022-12-12T22:12:28.364Z,86.26
2022-12-12T22:14:45.479Z,86.21
2022-12-12T22:17:02.586Z,86.46
2022-12-12T22:19:19.729Z,86.60
2022-12-12T22:21:36.683Z,86.69
2022-12-12T22:23:54.013Z,86.69
2022-12-12T22:26:11.079Z,86.46
2022-12-12T22:28:28.174Z,86.63
2022-12-12T22:30:45.434Z,86.54
2022-12-12T22:33:02.532Z,86.18
2022-12-12T22:35:19.674Z,85.82
2022-12-12T22:37:37.145Z,85.95
2022-12-12T22:39:56.128Z,86.26
2022-12-12T22:42:13.224Z,86.55
2022-12-12T22:44:30.529Z,86.29
2022-12-12T22:46:47.962Z,86.30
2022-12-12T22:49:04.959Z,86.55
2022-12-12T22:51:22.428Z,86.49
2022-12-12T22:53:44.161Z,86.44
2022-12-12T22:56:01.721Z,86.48
2022-12-12T22:58:18.824Z,86.53
2022-12-12T23:00:35.959Z,87.13
2022-12-12T23:02:52.871Z,86.89
2022-12-12T23:05:11.158Z,86.90
2022-12-12T23:07:28.590Z,86.89
2022-12-12T23:09:45.885Z,86.78
2022-12-12T23:12:02.943Z,86.65
2022-12-12T23:14:19.960Z,87.00
2022-12-12T23:16:37.355Z,86.77
2022-12-12T23:18:54.706Z,86.77
2022-12-12T23:21:16.753Z,86.94
2022-12-12T23:23:34.356Z,87.00
2022-12-12T23:25:52.399Z,87.05
2022-12-12T23:28:13.862Z,87.32
2022-12-12T23:30:31.078Z,87.06
2022-12-12T23:32:48.408Z,87.47
2022-12-12T23:35:06.585Z,87.72
2022-12-12T23:37:24.607Z,87.24
2022-12-12T23:39:41.630Z,87.75
2022-12-12T23:41:58.706Z,88.48
2022-12-12T23:44:15.875Z,88.50
2022-12-12T23:46:33.074Z,88.20
2022-12-12T23:48:53.053Z,88.24
2022-12-12T23:51:10.031Z,88.67
2022-12-12T23:53:27.222Z,88.36
2022-12-12T23:55:44.824Z,88.43
2022-12-12T23:58:02.156Z,88.60
